Time;durP1;ratioP1;P1;durP2;ratioP2;P2;SDS_P1;SDS_P2;PMS_P1;PMS_P2;Temp;Humidity;BMP_temperature;BMP_pressure;BME280_temperature;BME280_humidity;BME280_pressure;Samples;Min_cycle;Max_cycle;Signal;HPM_P1;HPM_P2
2019/07/07 00:01:15;;;;;;;3.9;2.4;;;;;;;32.45;31.53418;997.42;;;;
2019/07/07 00:03:39;;;;;;;4;2.4;;;;;;;32.43;31.63184;997.3669;;;;
2019/07/07 00:06:05;;;;;;;4.1;2.5;;;;;;;32.43;31.52148;997.3203;;;;
2019/07/07 00:06:16;;;;;;;5.4;2.7;;;;;;;32.43;31.49609;997.337;;;;
2019/07/07 00:08:42;;;;;;;5;2.6;;;;;;;32.42;31.58203;997.3226;;;;
2019/07/07 00:11:08;;;;;;;3.6;2.6;;;;;;;32.41;31.55664;997.2756;;;;
2019/07/07 00:14:27;;;;;;;4.6;2.6;;;;;;;32.4;31.54395;997.2609;;;;
2019/07/07 00:16:52;;;;;;;3.8;2.5;;;;;;;32.4;31.49414;997.2463;;;;
2019/07/07 00:19:18;;;;;;;4.6;2.5;;;;;;;32.39;31.48145;997.242;;;;
2019/07/07 00:21:44;;;;;;;4.3;2.4;;;;;;;32.39;31.40723;997.1462;;;;
2019/07/07 00:24:10;;;;;;;3.5;2.1;;;;;;;32.39;31.39453;997.1164;;;;
2019/07/07 00:26:35;;;;;;;4.6;2.7;;;;;;;32.38;31.46875;997.1078;;;;
2019/07/07 00:29:53;;;;;;;7.1;2.5;;;;;;;32.38;31.35742;997.0323;;;;
2019/07/07 00:32:19;;;;;;;4.5;2.3;;;;;;;32.38;31.28418;997.0303;;;;
2019/07/07 00:34:46;;;;;;;4.6;2.4;;;;;;;32.37;31.23438;997.0527;;;;
2019/07/07 00:37:11;;;;;;;5.7;2.4;;;;;;;32.37;31.24707;997.0178;;;;
2019/07/07 00:39:34;;;;;;;4.3;2.4;;;;;;;32.37;31.13477;997.0214;;;;
2019/07/07 00:41:59;;;;;;;3.8;2.5;;;;;;;32.37;31.09863;996.9995;;;;
2019/07/07 00:44:25;;;;;;;4.8;2.6;;;;;;;32.37;31.11035;997.0308;;;;
2019/07/07 00:46:51;;;;;;;7.3;2.7;;;;;;;32.36;31.08496;997.0792;;;;
2019/07/07 00:49:17;;;;;;;5.6;2.5;;;;;;;32.34;31.1582;997.2092;;;;
2019/07/07 00:51:42;;;;;;;4.8;2.1;;;;;;;32.33;31.15723;997.3147;;;;
2019/07/07 00:54:07;;;;;;;3.2;2.1;;;;;;;32.33;31.0957;997.2891;;;;
2019/07/07 00:56:33;;;;;;;4.1;2.3;;;;;;;32.33;31.07129;997.2714;;;;
2019/07/07 00:58:57;;;;;;;3.5;2.1;;;;;;;32.34;31.03418;997.2811;;;;
2019/07/07 01:01:22;;;;;;;4.5;2.4;;;;;;;32.33;31.03418;997.3778;;;;
2019/07/07 01:03:48;;;;;;;4.1;2.5;;;;;;;32.33;30.98535;997.524;;;;
2019/07/07 01:06:15;;;;;;;5;2.3;;;;;;;32.34;30.87402;997.7347;;;;
2019/07/07 01:08:39;;;;;;;4.7;2.6;;;;;;;32.31;30.7627;997.7447;;;;
2019/07/07 01:11:59;;;;;;;4.8;2.5;;;;;;;32.31;30.71289;997.5334;;;;
2019/07/07 01:14:24;;;;;;;4.6;2.3;;;;;;;32.29;30.59961;997.2842;;;;
2019/07/07 01:15:14;;;;;;;4.3;2.6;;;;;;;32.28;30.5752;997.1766;;;;
2019/07/07 01:17:39;;;;;;;4.2;2.1;;;;;;;32.28;30.58691;997.0131;;;;
2019/07/07 01:20:05;;;;;;;3.2;2.1;;;;;;;32.26;30.5127;997.065;;;;
2019/07/07 01:22:30;;;;;;;6.4;2.4;;;;;;;32.27;30.30371;997.1799;;;;
2019/07/07 01:25:49;;;;;;;3.7;2.3;;;;;;;32.26;30.05664;997.2799;;;;
2019/07/07 01:29:10;;;;;;;3.4;2.1;;;;;;;32.25;29.82227;997.4072;;;;
2019/07/07 01:31:36;;;;;;;2.9;2.1;;;;;;;32.24;29.74805;997.4677;;;;
2019/07/07 01:32:44;;;;;;;4.4;2.3;;;;;;;32.24;29.68652;997.49;;;;
2019/07/07 01:34:38;;;;;;;4.2;2.2;;;;;;;32.22;29.70996;997.4389;;;;
2019/07/07 01:37:02;;;;;;;3.8;2.1;;;;;;;32.21;29.70996;997.3222;;;;
2019/07/07 01:39:28;;;;;;;3.9;2.1;;;;;;;32.21;29.42578;997.2186;;;;
2019/07/07 01:41:52;;;;;;;4.9;2.1;;;;;;;32.2;29.35059;997.0631;;;;
2019/07/07 01:44:18;;;;;;;4.8;2;;;;;;;32.19;29.32617;997.0688;;;;
2019/07/07 01:46:43;;;;;;;4.4;2.1;;;;;;;32.18;29.19043;997.1456;;;;
2019/07/07 01:49:07;;;;;;;4.2;2.2;;;;;;;32.18;29.11621;997.2061;;;;
2019/07/07 01:51:34;;;;;;;4;2.2;;;;;;;32.18;29.12793;997.2871;;;;
2019/07/07 01:53:58;;;;;;;3.5;2.1;;;;;;;32.18;29.0791;997.2812;;;;
2019/07/07 01:57:18;;;;;;;3.9;2.1;;;;;;;32.16;29.09082;997.1869;;;;
2019/07/07 01:59:43;;;;;;;3.7;2.3;;;;;;;32.15;29.07813;997.1301;;;;
2019/07/07 01:59:58;;;;;;;4.1;2.3;;;;;;;32.16;29.07813;997.1141;;;;
2019/07/07 02:02:23;;;;;;;2.5;1.8;;;;;;;32.16;29.04102;997.0775;;;;
2019/07/07 02:04:49;;;;;;;3.9;1.8;;;;;;;32.14;29.06445;997.2009;;;;
2019/07/07 02:07:16;;;;;;;3.3;2;;;;;;;32.13;29.08887;997.3544;;;;
2019/07/07 02:09:44;;;;;;;4.4;2;;;;;;;32.13;29.07617;997.2803;;;;
2019/07/07 02:10:08;;;;;;;4;1.9;;;;;;;32.13;29.08887;997.2597;;;;
2019/07/07 02:12:30;;;;;;;3.6;2.1;;;;;;;32.14;29.10156;997.1752;;;;
2019/07/07 02:12:40;;;;;;;3.1;2.3;;;;;;;32.14;29.08887;997.1643;;;;
2019/07/07 02:15:04;;;;;;;5.6;2.2;;;;;;;32.12;29.14941;997.144;;;;
2019/07/07 02:17:31;;;;;;;4.6;2.1;;;;;;;32.12;29.1123;997.2916;;;;
2019/07/07 02:19:59;;;;;;;4;2.1;;;;;;;32.12;29.14941;997.2952;;;;
2019/07/07 02:22:24;;;;;;;3.5;2.1;;;;;;;32.1;29.17285;997.2623;;;;
2019/07/07 02:24:49;;;;;;;3.7;2;;;;;;;32.11;29.14844;997.1806;;;;
2019/07/07 02:27:13;;;;;;;3.5;2.1;;;;;;;32.11;29.17383;997.2992;;;;
2019/07/07 02:29:39;;;;;;;5.2;2.3;;;;;;;32.1;29.18457;997.3558;;;;
2019/07/07 02:32:03;;;;;;;4.3;2.3;;;;;;;32.1;29.17285;997.0936;;;;
2019/07/07 02:34:29;;;;;;;5.7;2.3;;;;;;;32.1;29.16113;996.7083;;;;
2019/07/07 02:36:55;;;;;;;2.7;2;;;;;;;32.08;29.18457;996.6688;;;;
2019/07/07 02:39:20;;;;;;;4.2;2.1;;;;;;;32.08;29.18457;996.9528;;;;
2019/07/07 02:39:33;;;;;;;3.7;2.1;;;;;;;32.09;29.18457;997.0139;;;;
2019/07/07 02:41:58;;;;;;;4.3;2.2;;;;;;;32.08;29.20898;997.2313;;;;
2019/07/07 02:44:23;;;;;;;3.9;2;;;;;;;32.08;29.20801;997.2488;;;;
2019/07/07 02:46:49;;;;;;;3.6;2.1;;;;;;;32.07;29.18262;997.1326;;;;
2019/07/07 02:50:08;;;;;;;3.5;2;;;;;;;32.06;29.21973;997.0997;;;;
2019/07/07 02:52:33;;;;;;;2.8;2;;;;;;;32.06;29.23145;997.0103;;;;
2019/07/07 02:54:59;;;;;;;4.1;2;;;;;;;32.06;29.26855;997.0017;;;;
2019/07/07 02:57:25;;;;;;;3.8;1.9;;;;;;;32.05;29.26758;997.0539;;;;
2019/07/07 02:59:59;;;;;;;4.6;2;;;;;;;32.06;29.29297;996.9246;;;;
2019/07/07 03:02:15;;;;;;;4.1;2.2;;;;;;;32.06;29.34277;996.9409;;;;
2019/07/07 03:04:40;;;;;;;3.3;1.9;;;;;;;32.05;29.36621;997.0173;;;;
2019/07/07 03:07:05;;;;;;;4.3;2.1;;;;;;;32.05;29.42773;997.0392;;;;
2019/07/07 03:09:31;;;;;;;3.6;2.3;;;;;;;32.05;29.48926;997.0366;;;;
2019/07/07 03:11:57;;;;;;;3.5;2.1;;;;;;;32.04;29.47656;997.1183;;;;
2019/07/07 03:14:21;;;;;;;3.6;2;;;;;;;32.04;29.55078;997.287;;;;
2019/07/07 03:17:40;;;;;;;3.3;2.1;;;;;;;32.04;29.5752;997.3059;;;;
2019/07/07 03:20:07;;;;;;;4;2.1;;;;;;;32.04;29.55078;997.3508;;;;
2019/07/07 03:22:31;;;;;;;3.3;2.1;;;;;;;32.04;29.64844;997.421;;;;
2019/07/07 03:24:56;;;;;;;3.1;1.9;;;;;;;32.04;29.63672;997.3734;;;;
2019/07/07 03:27:22;;;;;;;3.6;2.1;;;;;;;32.04;29.67383;997.2073;;;;
2019/07/07 03:29:47;;;;;;;3.5;2;;;;;;;32.04;29.70996;997.2206;;;;
2019/07/07 03:33:06;;;;;;;3.1;2.1;;;;;;;32.04;29.83301;997.4044;;;;
2019/07/07 03:36:25;;;;;;;4.4;2.3;;;;;;;32.04;29.80859;997.406;;;;
2019/07/07 03:38:50;;;;;;;7.8;2.2;;;;;;;32.04;29.99316;997.2904;;;;
2019/07/07 03:41:17;;;;;;;5.4;2.2;;;;;;;32.04;30.0791;997.2904;;;;
2019/07/07 03:44:37;;;;;;;4.6;2.2;;;;;;;32.02;30.18848;997.4256;;;;
2019/07/07 03:47:03;;;;;;;3.7;2;;;;;;;32.01;30.2373;997.4536;;;;
2019/07/07 03:49:29;;;;;;;5;2.2;;;;;;;32;30.27344;997.4515;;;;
2019/07/07 03:51:53;;;;;;;4.1;2;;;;;;;31.99;30.44531;997.3775;;;;
2019/07/07 03:55:13;;;;;;;4.9;2.2;;;;;;;31.98;30.46875;997.4141;;;;
2019/07/07 03:57:37;;;;;;;4;2.2;;;;;;;31.99;30.55469;997.4253;;;;
2019/07/07 04:00:03;;;;;;;5.2;2.3;;;;;;;31.97;30.5918;997.4728;;;;
2019/07/07 04:02:28;;;;;;;3;2.1;;;;;;;31.97;30.63965;997.4964;;;;
2019/07/07 04:04:53;;;;;;;3.6;2.3;;;;;;;31.97;30.60352;997.5001;;;;
2019/07/07 04:08:13;;;;;;;5;2.3;;;;;;;31.96;30.67676;997.4562;;;;
2019/07/07 04:12:26;;;;;;;4.9;2.1;;;;;;;31.98;30.65332;997.4755;;;;
2019/07/07 04:14:55;;;;;;;4.4;2.1;;;;;;;31.98;30.71484;997.4888;;;;
2019/07/07 04:17:16;;;;;;;5.1;2.2;;;;;;;31.98;30.71484;997.5695;;;;
2019/07/07 04:19:41;;;;;;;4.1;2.4;;;;;;;31.98;30.81348;997.6415;;;;
2019/07/07 04:19:58;;;;;;;4.2;2.3;;;;;;;31.97;30.80078;997.6296;;;;
2019/07/07 04:22:24;;;;;;;3.6;2.4;;;;;;;31.97;30.73828;997.6011;;;;
2019/07/07 04:24:52;;;;;;;5.8;2.2;;;;;;;31.97;30.87402;997.5851;;;;
2019/07/07 04:27:16;;;;;;;4.3;2.3;;;;;;;31.97;30.88574;997.5811;;;;
2019/07/07 04:29:39;;;;;;;5.8;2.3;;;;;;;31.97;30.93555;997.5675;;;;
2019/07/07 04:32:06;;;;;;;4.5;2.2;;;;;;;31.97;30.97266;997.63;;;;
2019/07/07 04:34:32;;;;;;;4.8;2.3;;;;;;;31.97;31.04688;997.6805;;;;
2019/07/07 04:36:56;;;;;;;4.1;2.3;;;;;;;31.96;31.00879;997.6495;;;;
2019/07/07 04:39:23;;;;;;;4.3;2.2;;;;;;;31.97;30.95996;997.7147;;;;
2019/07/07 04:41:47;;;;;;;4.1;2.4;;;;;;;31.97;31.04688;997.7213;;;;
2019/07/07 04:44:13;;;;;;;5.4;2.2;;;;;;;31.97;31.04688;997.7695;;;;
2019/07/07 04:46:39;;;;;;;3.4;2.3;;;;;;;31.97;31.23145;997.7745;;;;
2019/07/07 04:49:57;;;;;;;6.1;2.6;;;;;;;31.96;31.21777;997.8342;;;;
2019/07/07 04:53:17;;;;;;;6.1;2.2;;;;;;;31.94;31.30273;997.8867;;;;
2019/07/07 04:55:42;;;;;;;4.7;2.2;;;;;;;31.96;31.29102;997.9504;;;;
2019/07/07 04:59:04;;;;;;;3.3;2.2;;;;;;;31.96;31.42773;998.0681;;;;
2019/07/07 05:01:28;;;;;;;6.6;2.2;;;;;;;31.96;31.45117;998.1199;;;;
2019/07/07 05:03:54;;;;;;;5.5;2.2;;;;;;;31.95;31.59863;998.166;;;;
2019/07/07 05:04:40;;;;;;;3.7;2.3;;;;;;;31.95;31.54883;998.185;;;;
2019/07/07 05:07:02;;;;;;;3.8;2.2;;;;;;;31.95;31.67188;998.2424;;;;
2019/07/07 05:09:28;;;;;;;4.4;2.5;;;;;;;31.94;31.69629;998.3334;;;;
2019/07/07 05:09:43;;;;;;;3.3;2.2;;;;;;;31.94;31.67188;998.3237;;;;
2019/07/07 05:12:12;;;;;;;4.8;2.1;;;;;;;31.92;31.80566;998.3477;;;;
2019/07/07 05:14:35;;;;;;;5;2.4;;;;;;;31.91;31.73145;998.4114;;;;
2019/07/07 05:17:00;;;;;;;3.6;2.3;;;;;;;31.9;31.76758;998.4766;;;;
2019/07/07 05:19:25;;;;;;;3.5;2.5;;;;;;;31.9;31.84082;998.524;;;;
2019/07/07 05:21:51;;;;;;;5;2;;;;;;;31.89;31.97559;998.6017;;;;
2019/07/07 05:24:17;;;;;;;3.9;2.1;;;;;;;31.89;32.0498;998.6801;;;;
2019/07/07 05:26:42;;;;;;;3.5;2.1;;;;;;;31.87;32.06055;998.6186;;;;
2019/07/07 05:29:08;;;;;;;4.8;2.2;;;;;;;31.86;32.12109;998.6339;;;;
2019/07/07 05:31:33;;;;;;;3.5;2.3;;;;;;;31.86;32.12109;998.6439;;;;
2019/07/07 05:33:58;;;;;;;4.4;2.2;;;;;;;31.86;32.12109;998.6661;;;;
2019/07/07 05:36:24;;;;;;;3.7;2.2;;;;;;;31.84;32.13184;998.6567;;;;
2019/07/07 05:38:48;;;;;;;3.3;2.1;;;;;;;31.85;32.13184;998.6727;;;;
2019/07/07 05:41:13;;;;;;;2.8;1.8;;;;;;;31.83;32.16797;998.7026;;;;
2019/07/07 05:43:39;;;;;;;3.7;2.1;;;;;;;31.82;32.17969;998.6418;;;;
2019/07/07 05:46:05;;;;;;;2.9;1.9;;;;;;;31.81;32.16602;998.6179;;;;
2019/07/07 05:48:31;;;;;;;2.7;2.2;;;;;;;31.79;32.17773;998.678;;;;
2019/07/07 05:50:57;;;;;;;3.2;2.1;;;;;;;31.8;32.11719;998.7145;;;;
2019/07/07 05:54:19;;;;;;;3.2;1.9;;;;;;;31.77;32.2627;998.7081;;;;
2019/07/07 05:56:45;;;;;;;2.9;1.9;;;;;;;31.77;32.20117;998.7267;;;;
2019/07/07 05:59:10;;;;;;;3.5;1.9;;;;;;;31.78;32.18945;998.7786;;;;
2019/07/07 06:01:35;;;;;;;3.7;2;;;;;;;31.78;32.05371;998.7556;;;;
2019/07/07 06:04:02;;;;;;;2.9;1.9;;;;;;;31.78;32.11523;998.7988;;;;
2019/07/07 06:06:26;;;;;;;3.3;2;;;;;;;31.79;32.06641;998.8084;;;;
2019/07/07 06:08:51;;;;;;;3.1;2.1;;;;;;;31.79;32.03027;998.843;;;;
2019/07/07 06:09:36;;;;;;;4.1;2.2;;;;;;;31.79;32.03027;998.8713;;;;
2019/07/07 06:12:02;;;;;;;4;2.2;;;;;;;31.79;32.00488;998.8297;;;;
2019/07/07 06:14:27;;;;;;;2.7;1.9;;;;;;;31.8;32.01855;998.8739;;;;
2019/07/07 06:16:52;;;;;;;3.6;2.1;;;;;;;31.8;32.00586;998.8892;;;;
2019/07/07 06:19:17;;;;;;;2.7;1.9;;;;;;;31.81;31.95703;998.8762;;;;
2019/07/07 06:19:45;;;;;;;3.9;2;;;;;;;31.8;31.98145;998.8822;;;;
2019/07/07 06:22:09;;;;;;;4.6;2;;;;;;;31.82;31.9707;998.8945;;;;
2019/07/07 06:25:29;;;;;;;3.7;2.1;;;;;;;31.81;31.94531;998.9244;;;;
2019/07/07 06:27:53;;;;;;;2.2;1.8;;;;;;;31.81;31.88379;998.9144;;;;
2019/07/07 06:30:19;;;;;;;2.8;1.8;;;;;;;31.8;31.80957;998.9695;;;;
2019/07/07 06:32:44;;;;;;;2.5;1.8;;;;;;;31.8;31.6748;999.0011;;;;
2019/07/07 06:35:09;;;;;;;1.9;1.7;;;;;;;31.79;31.5625;998.9934;;;;
2019/07/07 06:37:35;;;;;;;2;1.7;;;;;;;31.79;31.47559;998.9905;;;;
2019/07/07 06:40:02;;;;;;;3.6;1.6;;;;;;;31.8;31.44043;998.9731;;;;
2019/07/07 06:42:26;;;;;;;2.1;1.8;;;;;;;31.8;31.41602;998.9529;;;;
2019/07/07 06:44:52;;;;;;;4.3;1.8;;;;;;;31.82;31.28125;999.0067;;;;
2019/07/07 06:47:17;;;;;;;2;1.7;;;;;;;31.84;31.20996;999.0151;;;;
2019/07/07 06:49:41;;;;;;;3.5;1.8;;;;;;;31.86;31.125;999.0264;;;;
2019/07/07 06:52:07;;;;;;;2;1.6;;;;;;;31.89;31.05371;998.9514;;;;
2019/07/07 06:54:32;;;;;;;2.5;1.8;;;;;;;31.9;31.0166;998.9176;;;;
2019/07/07 06:55:04;;;;;;;2;1.7;;;;;;;31.9;30.99219;998.9235;;;;
2019/07/07 06:58:23;;;;;;;2.5;1.7;;;;;;;31.93;30.84668;998.9953;;;;
2019/07/07 07:00:48;;;;;;;2.4;1.6;;;;;;;31.94;30.74902;999.0568;;;;
2019/07/07 07:03:13;;;;;;;3;1.6;;;;;;;31.94;30.56543;999.0906;;;;
2019/07/07 07:05:39;;;;;;;2.1;1.6;;;;;;;31.93;30.46582;999.095;;;;
2019/07/07 07:08:04;;;;;;;1.9;1.7;;;;;;;31.93;30.3916;999.0744;;;;
2019/07/07 07:10:29;;;;;;;2.1;1.5;;;;;;;31.91;30.41504;999.0989;;;;
2019/07/07 07:12:57;;;;;;;2;1.7;;;;;;;31.9;30.40234;999.0517;;;;
2019/07/07 07:15:20;;;;;;;1.7;1.5;;;;;;;31.9;30.42578;999.0912;;;;
2019/07/07 07:17:46;;;;;;;2.1;1.5;;;;;;;31.9;30.41406;999.0444;;;;
2019/07/07 07:20:11;;;;;;;1.9;1.6;;;;;;;31.9;30.41406;999.0488;;;;
2019/07/07 07:22:36;;;;;;;2.2;1.5;;;;;;;31.89;30.41406;999.075;;;;
2019/07/07 07:25:01;;;;;;;2.9;1.5;;;;;;;31.89;30.42578;999.0989;;;;
2019/07/07 07:27:28;;;;;;;1.7;1.6;;;;;;;31.89;30.40137;999.147;;;;
2019/07/07 07:30:46;;;;;;;1.6;1.4;;;;;;;31.9;30.38965;999.2453;;;;
2019/07/07 07:33:11;;;;;;;2;1.3;;;;;;;31.89;30.42578;999.2045;;;;
2019/07/07 07:33:50;;;;;;;1.7;1.5;;;;;;;31.89;30.41406;999.2271;;;;
2019/07/07 07:36:16;;;;;;;1.7;1.3;;;;;;;31.9;30.37695;999.2408;;;;
2019/07/07 07:38:41;;;;;;;2.3;1.5;;;;;;;31.91;30.3291;999.2291;;;;
2019/07/07 07:41:59;;;;;;;2.4;1.4;;;;;;;31.89;30.36426;999.242;;;;
2019/07/07 07:44:26;;;;;;;2;1.4;;;;;;;31.88;30.37598;999.2673;;;;
2019/07/07 07:47:45;;;;;;;1.7;1.5;;;;;;;31.89;30.33984;999.3645;;;;
2019/07/07 07:50:11;;;;;;;1.6;1.4;;;;;;;31.9;30.29199;999.4238;;;;
2019/07/07 07:52:36;;;;;;;2.1;1.4;;;;;;;31.91;30.21875;999.4084;;;;
2019/07/07 07:55:01;;;;;;;1.6;1.5;;;;;;;31.9;30.19336;999.3599;;;;
2019/07/07 07:57:27;;;;;;;1.8;1.6;;;;;;;31.9;30.15625;999.3317;;;;
2019/07/07 07:59:53;;;;;;;2.1;1.6;;;;;;;31.89;30.16797;999.353;;;;
2019/07/07 08:02:17;;;;;;;3;1.4;;;;;;;31.89;30.16797;999.4238;;;;
2019/07/07 08:04:44;;;;;;;1.8;1.5;;;;;;;31.88;30.11816;999.4583;;;;
2019/07/07 08:07:08;;;;;;;2.5;1.6;;;;;;;31.89;30.09375;999.4373;;;;
2019/07/07 08:07:33;;;;;;;1.5;1.4;;;;;;;31.88;30.08105;999.4453;;;;
2019/07/07 08:09:59;;;;;;;1.3;1.2;;;;;;;31.89;30.05762;999.5176;;;;
2019/07/07 08:12:24;;;;;;;1.4;1.3;;;;;;;31.88;30.10547;999.5808;;;;
2019/07/07 08:14:49;;;;;;;2.5;1.4;;;;;;;31.9;30.0459;999.6124;;;;
2019/07/07 08:17:15;;;;;;;4.4;1.4;;;;;;;31.88;30.06934;999.627;;;;
2019/07/07 08:19:40;;;;;;;2.1;1.4;;;;;;;31.88;30.00684;999.6262;;;;
2019/07/07 08:23:00;;;;;;;1.7;1.3;;;;;;;31.88;29.9707;999.6375;;;;
2019/07/07 08:25:28;;;;;;;1.2;1.1;;;;;;;31.87;29.98145;999.6169;;;;
2019/07/07 08:27:52;;;;;;;2.2;1.4;;;;;;;31.86;30.01855;999.6332;;;;
2019/07/07 08:31:13;;;;;;;1.8;1.2;;;;;;;31.88;30.01953;999.6891;;;;
2019/07/07 08:33:37;;;;;;;3.2;1.4;;;;;;;31.89;30.02051;999.707;;;;
2019/07/07 08:36:02;;;;;;;1.6;1.3;;;;;;;31.9;29.9834;999.7156;;;;
2019/07/07 08:38:27;;;;;;;1.5;1.4;;;;;;;31.9;29.9834;999.6973;;;;
2019/07/07 08:40:52;;;;;;;1.3;1.2;;;;;;;31.88;30.01953;999.6976;;;;
2019/07/07 08:43:18;;;;;;;1.4;1.2;;;;;;;31.89;29.99609;999.6788;;;;
2019/07/07 08:45:43;;;;;;;2.3;1.3;;;;;;;31.88;30.01953;999.6292;;;;
2019/07/07 08:48:09;;;;;;;2.4;1.5;;;;;;;31.88;30.03223;999.6791;;;;
2019/07/07 08:50:33;;;;;;;1.9;1.5;;;;;;;31.87;30.01855;999.6169;;;;
2019/07/07 08:52:59;;;;;;;1.5;1.3;;;;;;;31.88;29.99414;999.6223;;;;
2019/07/07 08:55:26;;;;;;;2.2;1.3;;;;;;;31.87;29.96973;999.6501;;;;
2019/07/07 08:55:37;;;;;;;1.8;1.5;;;;;;;31.87;29.94434;999.6777;;;;
2019/07/07 08:58:02;;;;;;;2.4;1.4;;;;;;;31.87;29.93262;999.6608;;;;
2019/07/07 09:01:21;;;;;;;1.9;1.5;;;;;;;31.87;29.89551;999.6611;;;;
2019/07/07 09:04:40;;;;;;;2.3;1.7;;;;;;;31.88;29.84668;999.764;;;;
2019/07/07 09:07:05;;;;;;;1.9;1.6;;;;;;;31.87;29.85938;999.8026;;;;
2019/07/07 09:09:31;;;;;;;1.9;1.7;;;;;;;31.88;29.82324;999.7282;;;;
2019/07/07 09:11:56;;;;;;;2.8;1.6;;;;;;;31.88;29.82227;999.7425;;;;
2019/07/07 09:14:21;;;;;;;1.8;1.4;;;;;;;31.89;29.81152;999.7162;;;;
2019/07/07 09:16:50;;;;;;;1.7;1.5;;;;;;;31.89;29.81152;999.7645;;;;
2019/07/07 09:19:12;;;;;;;1.7;1.6;;;;;;;31.9;29.79883;999.6891;;;;
2019/07/07 09:21:39;;;;;;;2.1;1.7;;;;;;;31.9;29.82324;999.7079;;;;
2019/07/07 09:25:52;;;;;;;2.9;1.5;;;;;;;31.91;29.83691;999.813;;;;
2019/07/07 09:28:17;;;;;;;2.2;1.7;;;;;;;31.92;29.83789;999.8772;;;;
2019/07/07 09:28:31;;;;;;;2.6;1.7;;;;;;;31.92;29.8252;999.8752;;;;
2019/07/07 09:30:56;;;;;;;2;1.7;;;;;;;31.93;29.83789;999.8887;;;;
2019/07/07 09:33:22;;;;;;;2.5;1.9;;;;;;;31.94;29.77734;999.912;;;;
2019/07/07 09:35:47;;;;;;;2.9;2;;;;;;;31.93;29.74023;999.8356;;;;
2019/07/07 09:38:12;;;;;;;2.2;1.7;;;;;;;31.92;29.72656;999.8884;;;;
2019/07/07 09:40:37;;;;;;;3;1.9;;;;;;;31.91;29.72656;999.8824;;;;
2019/07/07 09:41:10;;;;;;;2.1;1.9;;;;;;;31.9;29.73828;999.8705;;;;
2019/07/07 09:43:35;;;;;;;2.6;2;;;;;;;31.91;29.68945;999.8136;;;;
2019/07/07 09:46:01;;;;;;;2.3;2.1;;;;;;;31.93;29.69043;999.8506;;;;
2019/07/07 09:48:25;;;;;;;2.2;2;;;;;;;31.94;29.65527;999.843;;;;
2019/07/07 09:50:51;;;;;;;2.5;2.1;;;;;;;31.96;29.66797;999.9001;;;;
2019/07/07 09:53:16;;;;;;;3.7;2.1;;;;;;;31.96;29.69336;999.9131;;;;
2019/07/07 09:55:42;;;;;;;2.3;2.1;;;;;;;31.98;29.69336;999.952;;;;
2019/07/07 09:58:07;;;;;;;2.2;1.9;;;;;;;32;29.6709;999.9289;;;;
2019/07/07 09:58:51;;;;;;;2.6;2.1;;;;;;;32;29.68262;999.9331;;;;
2019/07/07 10:01:16;;;;;;;2.3;2.1;;;;;;;32.02;29.5127;999.9333;;;;
2019/07/07 10:03:41;;;;;;;2.4;2.2;;;;;;;32.03;29.46289;999.9303;;;;
2019/07/07 10:07:00;;;;;;;2.4;2;;;;;;;32.02;29.32715;999.9584;;;;
2019/07/07 10:09:25;;;;;;;3.3;2.4;;;;;;;32.01;29.32715;999.9741;;;;
2019/07/07 10:11:53;;;;;;;3.2;2.4;;;;;;;32.02;29.22949;999.9432;;;;
2019/07/07 10:14:16;;;;;;;3.2;2.1;;;;;;;32.04;29.24219;999.9832;;;;
2019/07/07 10:16:42;;;;;;;2.6;2.2;;;;;;;32.03;29.24219;999.9386;;;;
2019/07/07 10:19:07;;;;;;;2.5;2.3;;;;;;;32.03;29.22949;999.8725;;;;
2019/07/07 10:21:34;;;;;;;3;2.3;;;;;;;32.04;29.20508;999.8924;;;;
2019/07/07 10:24:02;;;;;;;2.4;2.2;;;;;;;32.04;29.20508;999.8635;;;;
2019/07/07 10:26:24;;;;;;;2.6;2.4;;;;;;;32.04;29.19336;999.8822;;;;
2019/07/07 10:28:51;;;;;;;2.6;2.4;;;;;;;32.05;29.16992;999.8702;;;;
2019/07/07 10:31:15;;;;;;;2.8;2.5;;;;;;;32.04;29.12012;999.8715;;;;
2019/07/07 10:33:42;;;;;;;4.4;2.6;;;;;;;32.04;29.14355;999.9339;;;;
2019/07/07 10:36:08;;;;;;;3.2;2.4;;;;;;;32.03;29.14355;999.9628;;;;
2019/07/07 10:39:28;;;;;;;2.5;2.3;;;;;;;32.01;29.12988;999.9847;;;;
2019/07/07 10:41:52;;;;;;;2.9;2.1;;;;;;;32.01;29.08008;999.9551;;;;
2019/07/07 10:44:17;;;;;;;2.8;2.5;;;;;;;32.02;28.98242;999.9877;;;;
2019/07/07 10:46:42;;;;;;;2.5;2.3;;;;;;;31.99;28.95605;999.9763;;;;
2019/07/07 10:49:07;;;;;;;2.4;2.2;;;;;;;31.99;28.87012;1000.031;;;;
2019/07/07 10:51:32;;;;;;;2.9;2.1;;;;;;;31.98;28.78418;1000.05;;;;
2019/07/07 10:53:57;;;;;;;3;2.2;;;;;;;31.99;28.79688;1000.02;;;;
2019/07/07 10:56:24;;;;;;;2.4;2.2;;;;;;;31.97;28.7832;999.9945;;;;
2019/07/07 10:58:51;;;;;;;2.6;2.4;;;;;;;31.99;28.73438;999.9614;;;;
2019/07/07 11:02:08;;;;;;;3.4;2.2;;;;;;;31.98;28.69727;999.9766;;;;
2019/07/07 11:02:52;;;;;;;2.7;2.3;;;;;;;31.98;28.69727;999.9497;;;;
2019/07/07 11:05:18;;;;;;;2.9;2.3;;;;;;;31.99;28.69727;999.9614;;;;
2019/07/07 11:07:41;;;;;;;2.4;2.2;;;;;;;31.98;28.69727;999.954;;;;
2019/07/07 11:10:07;;;;;;;2.4;2.2;;;;;;;31.97;28.70898;999.9075;;;;
2019/07/07 11:12:34;;;;;;;2.4;2.2;;;;;;;31.99;28.66211;999.9434;;;;
2019/07/07 11:14:59;;;;;;;3;2.2;;;;;;;31.99;28.64941;999.9152;;;;
2019/07/07 11:17:24;;;;;;;3.1;2;;;;;;;32;28.6377;999.9554;;;;
2019/07/07 11:20:44;;;;;;;4;2.3;;;;;;;32.01;28.57617;999.9152;;;;
2019/07/07 11:24:56;;;;;;;3.9;2.3;;;;;;;32.01;28.52734;999.813;;;;
2019/07/07 11:27:23;;;;;;;3;2.2;;;;;;;32.01;28.55176;999.8552;;;;
2019/07/07 11:29:48;;;;;;;2.7;2;;;;;;;32.02;28.51563;999.9119;;;;
2019/07/07 11:32:14;;;;;;;2.3;2.1;;;;;;;32;28.56348;999.8864;;;;
2019/07/07 11:34:39;;;;;;;2.4;2.2;;;;;;;32.01;28.56445;999.8794;;;;
2019/07/07 11:37:05;;;;;;;3;2.4;;;;;;;32.01;28.51563;999.8541;;;;
2019/07/07 11:39:30;;;;;;;4.2;2.4;;;;;;;32.01;28.52637;999.8074;;;;
2019/07/07 11:41:55;;;;;;;3.2;2.2;;;;;;;32.01;28.55176;999.8053;;;;
2019/07/07 11:44:20;;;;;;;2.6;2.3;;;;;;;32.01;28.52637;999.8089;;;;
2019/07/07 11:44:58;;;;;;;2.7;2.2;;;;;;;32.02;28.52734;999.8448;;;;
2019/07/07 11:47:25;;;;;;;2.3;2.1;;;;;;;32.01;28.52734;999.8209;;;;
2019/07/07 11:49:49;;;;;;;2.3;2.1;;;;;;;32.02;28.52832;999.8717;;;;
2019/07/07 11:50:05;;;;;;;2.4;2.1;;;;;;;32.02;28.55273;999.8953;;;;
2019/07/07 11:52:31;;;;;;;2.8;2.2;;;;;;;32.01;28.60059;999.8937;;;;
2019/07/07 11:52:40;;;;;;;3.7;2.2;;;;;;;32.01;28.60059;999.872;;;;
2019/07/07 11:55:04;;;;;;;3.7;2.4;;;;;;;32.02;28.63867;999.8831;;;;
2019/07/07 11:58:25;;;;;;;2.4;2.2;;;;;;;32.01;28.6748;999.8295;;;;
2019/07/07 12:00:50;;;;;;;2.5;2.2;;;;;;;32;28.73535;999.795;;;;
2019/07/07 12:03:15;;;;;;;4;2.2;;;;;;;32.01;28.72461;999.791;;;;
2019/07/07 12:05:41;;;;;;;2.7;2.3;;;;;;;32.02;28.7373;999.7748;;;;
2019/07/07 12:08:08;;;;;;;2.7;2.1;;;;;;;32.02;28.77344;999.7717;;;;
2019/07/07 12:11:27;;;;;;;2.5;2.3;;;;;;;32.01;28.83496;999.8044;;;;
2019/07/07 12:14:46;;;;;;;2.8;2.4;;;;;;;32.02;28.85938;999.7684;;;;
2019/07/07 12:17:11;;;;;;;2.6;2.4;;;;;;;32.01;28.87109;999.7472;;;;
2019/07/07 12:19:37;;;;;;;2.6;2.3;;;;;;;32.01;28.9209;999.8628;;;;
2019/07/07 12:22:01;;;;;;;2.6;2.3;;;;;;;32.01;28.95801;999.8269;;;;
2019/07/07 12:24:27;;;;;;;3.4;2.4;;;;;;;32;29.00586;999.8469;;;;
2019/07/07 12:28:40;;;;;;;2.6;2.4;;;;;;;32;29.06738;999.8947;;;;
2019/07/07 12:31:06;;;;;;;2.4;2.2;;;;;;;32.01;29.04395;999.9083;;;;
2019/07/07 12:33:31;;;;;;;3;2.5;;;;;;;32;29.09277;1000.017;;;;
2019/07/07 12:35:57;;;;;;;2.8;2.3;;;;;;;31.98;29.15234;1000.018;;;;
2019/07/07 12:38:22;;;;;;;3.2;2.3;;;;;;;31.99;29.1543;1000.033;;;;
2019/07/07 12:40:48;;;;;;;3.1;2.5;;;;;;;32;29.17871;1000.007;;;;
2019/07/07 12:43:13;;;;;;;2.6;2.4;;;;;;;31.98;29.22656;1000.037;;;;
2019/07/07 12:45:39;;;;;;;2.9;2.6;;;;;;;31.96;29.29883;1000.031;;;;
2019/07/07 12:48:04;;;;;;;3;2.4;;;;;;;31.92;29.3457;1000.038;;;;
2019/07/07 12:50:29;;;;;;;3.1;2.4;;;;;;;31.92;29.37012;999.9947;;;;
2019/07/07 12:52:56;;;;;;;2.8;2.6;;;;;;;31.93;29.3457;1000.032;;;;
2019/07/07 12:55:21;;;;;;;4.5;2.5;;;;;;;31.91;29.39453;1000.065;;;;
2019/07/07 12:57:46;;;;;;;2.7;2.4;;;;;;;31.91;29.39453;1000.122;;;;
2019/07/07 13:00:12;;;;;;;3.1;2.3;;;;;;;31.92;29.39453;1000.118;;;;
2019/07/07 13:02:37;;;;;;;3.8;2.7;;;;;;;31.93;29.39453;1000.137;;;;
2019/07/07 13:05:03;;;;;;;4;2.6;;;;;;;31.92;29.43164;1000.174;;;;
2019/07/07 13:07:28;;;;;;;2.8;2.5;;;;;;;31.92;29.48047;1000.199;;;;
2019/07/07 13:09:53;;;;;;;3.3;2.9;;;;;;;31.93;29.44434;1000.177;;;;
2019/07/07 13:13:13;;;;;;;3.3;3;;;;;;;31.91;29.48047;1000.191;;;;
2019/07/07 13:15:39;;;;;;;3.3;2.7;;;;;;;31.92;29.50586;1000.211;;;;
2019/07/07 13:18:03;;;;;;;4;2.7;;;;;;;31.9;29.5293;1000.229;;;;
2019/07/07 13:20:30;;;;;;;4.1;2.8;;;;;;;31.91;29.51758;1000.25;;;;
2019/07/07 13:22:54;;;;;;;3.7;2.8;;;;;;;31.89;29.52832;1000.192;;;;
2019/07/07 13:25:20;;;;;;;4.2;2.7;;;;;;;31.9;29.54102;1000.221;;;;
2019/07/07 13:27:45;;;;;;;3.4;3.1;;;;;;;31.9;29.54102;1000.234;;;;
2019/07/07 13:30:10;;;;;;;3.3;3;;;;;;;31.89;29.57715;1000.252;;;;
2019/07/07 13:32:35;;;;;;;3.3;2.8;;;;;;;31.9;29.54102;1000.244;;;;
2019/07/07 13:35:00;;;;;;;3.6;3;;;;;;;31.89;29.60254;1000.276;;;;
2019/07/07 13:37:26;;;;;;;3.9;2.9;;;;;;;31.89;29.60254;1000.361;;;;
2019/07/07 13:39:51;;;;;;;3.4;2.6;;;;;;;31.87;29.64941;1000.412;;;;
2019/07/07 13:42:16;;;;;;;2.9;2.6;;;;;;;31.86;29.6377;1000.421;;;;
2019/07/07 13:44:41;;;;;;;2.5;2.3;;;;;;;31.87;29.6123;1000.397;;;;
2019/07/07 13:48:05;;;;;;;3.3;2.4;;;;;;;31.85;29.67383;1000.413;;;;
2019/07/07 13:50:26;;;;;;;2.6;2.4;;;;;;;31.84;29.68457;1000.348;;;;
2019/07/07 13:52:52;;;;;;;2.7;2.2;;;;;;;31.84;29.68457;1000.382;;;;
2019/07/07 13:55:19;;;;;;;3.3;2.4;;;;;;;31.83;29.7334;1000.385;;;;
2019/07/07 13:57:43;;;;;;;2.6;2.1;;;;;;;31.83;29.7334;1000.433;;;;
2019/07/07 14:01:02;;;;;;;2.5;2.3;;;;;;;31.83;29.70898;1000.422;;;;
2019/07/07 14:03:29;;;;;;;2.7;2.2;;;;;;;31.84;29.74609;1000.407;;;;
2019/07/07 14:05:54;;;;;;;2.6;2.1;;;;;;;31.84;29.70898;1000.422;;;;
2019/07/07 14:08:21;;;;;;;2.3;2.1;;;;;;;31.84;29.7207;1000.459;;;;